Time;durP1;ratioP1;P1;durP2;ratioP2;P2;SDS_P1;SDS_P2;PMS_P1;PMS_P2;Temp;Humidity;BMP_temperature;BMP_pressure;BME280_temperature;BME280_humidity;BME280_pressure;Samples;Min_cycle;Max_cycle;Signal;HPM_P1;HPM_P2
2023/12/12 00:02:20;;;;;;;20.85;6.13;;;7.80;99.90;;;;;;5117873;28;20173;-61
2023/12/12 00:04:46;;;;;;;19.00;5.30;;;7.80;99.90;;;;;;5117767;28;20290;-60
2023/12/12 00:07:12;;;;;;;16.48;5.25;;;7.70;99.90;;;;;;5117535;28;20169;-61
2023/12/12 00:09:37;;;;;;;17.23;5.10;;;7.70;99.90;;;;;;5117609;28;20209;-61
2023/12/12 00:12:03;;;;;;;22.13;6.07;;;7.70;99.90;;;;;;5117971;28;20169;-61
2023/12/12 00:14:29;;;;;;;20.95;5.43;;;7.70;99.90;;;;;;5117629;28;20209;-61
2023/12/12 00:16:54;;;;;;;17.65;5.80;;;7.60;99.90;;;;;;5117613;28;20258;-61
2023/12/12 00:19:20;;;;;;;21.02;5.80;;;7.60;99.90;;;;;;5117739;28;20690;-62
2023/12/12 00:21:46;;;;;;;15.57;5.57;;;7.60;99.90;;;;;;5117201;28;20223;-62
2023/12/12 00:24:11;;;;;;;15.55;5.75;;;7.60;99.90;;;;;;5117477;28;20188;-61
2023/12/12 00:26:37;;;;;;;24.45;6.47;;;7.70;99.90;;;;;;5117462;28;20176;-61
2023/12/12 00:29:03;;;;;;;17.38;5.95;;;7.70;99.90;;;;;;5117276;28;20205;-61
2023/12/12 00:31:28;;;;;;;19.20;6.00;;;7.70;99.90;;;;;;5117349;28;20184;-61
2023/12/12 00:33:54;;;;;;;25.77;7.65;;;7.80;99.90;;;;;;5117250;28;20180;-61
2023/12/12 00:36:19;;;;;;;24.35;6.50;;;7.80;99.90;;;;;;5117280;28;20606;-61
2023/12/12 00:38:45;;;;;;;24.30;6.70;;;7.80;99.90;;;;;;5117570;28;20582;-61
2023/12/12 00:41:11;;;;;;;20.58;6.18;;;7.80;99.90;;;;;;5117156;28;20186;-60
2023/12/12 00:43:40;;;;;;;20.83;5.78;;;7.70;99.90;;;;;;5117153;28;20614;-61
2023/12/12 00:46:06;;;;;;;24.23;5.55;;;7.70;99.90;;;;;;5117319;28;20206;-61
2023/12/12 00:48:31;;;;;;;19.00;6.25;;;7.80;99.90;;;;;;5116896;28;20205;-61
2023/12/12 00:50:57;;;;;;;19.40;5.60;;;7.70;99.90;;;;;;5116979;28;20633;-61
2023/12/12 00:53:23;;;;;;;21.30;6.25;;;7.70;99.90;;;;;;5116879;28;20173;-61
2023/12/12 00:55:48;;;;;;;19.42;5.50;;;7.70;99.90;;;;;;5116814;28;20170;-60
2023/12/12 00:58:14;;;;;;;18.02;5.53;;;7.70;99.90;;;;;;5115872;28;20183;-61
2023/12/12 01:00:39;;;;;;;20.08;5.45;;;7.70;99.90;;;;;;5116791;28;20173;-61
2023/12/12 01:03:05;;;;;;;15.70;5.10;;;7.60;99.90;;;;;;5116477;28;20599;-61
2023/12/12 01:05:31;;;;;;;13.75;5.18;;;7.70;99.90;;;;;;5116655;28;20181;-61
2023/12/12 01:07:56;;;;;;;11.48;5.13;;;7.60;99.90;;;;;;5116573;28;20208;-61
2023/12/12 01:10:22;;;;;;;16.05;5.10;;;7.70;99.90;;;;;;5116282;28;20173;-60
2023/12/12 01:12:47;;;;;;;16.58;5.63;;;7.70;99.90;;;;;;5116532;28;20173;-60
2023/12/12 01:15:13;;;;;;;16.38;5.43;;;7.60;99.90;;;;;;5116518;28;20599;-61
2023/12/12 01:17:39;;;;;;;19.40;5.82;;;7.70;99.90;;;;;;5116460;28;20177;-61
2023/12/12 01:20:07;;;;;;;17.25;5.60;;;7.70;99.90;;;;;;5116375;28;20172;-61
2023/12/12 01:22:33;;;;;;;17.67;5.00;;;7.80;99.90;;;;;;5116368;28;20228;-61
2023/12/12 01:24:59;;;;;;;20.70;6.07;;;7.80;99.90;;;;;;5116316;28;20177;-61
2023/12/12 01:27:24;;;;;;;20.15;6.13;;;7.90;99.90;;;;;;5115935;28;20519;-61
2023/12/12 01:29:50;;;;;;;21.60;6.97;;;8.00;99.90;;;;;;5116235;28;20187;-61
2023/12/12 01:32:16;;;;;;;17.73;5.78;;;8.00;99.90;;;;;;5116126;28;20175;-62
2023/12/12 01:34:41;;;;;;;22.92;6.32;;;8.00;99.90;;;;;;5116141;28;20173;-61
2023/12/12 01:37:07;;;;;;;22.73;6.25;;;8.10;99.90;;;;;;5116072;28;20177;-62
2023/12/12 01:39:33;;;;;;;16.42;5.32;;;8.20;99.90;;;;;;5116024;28;20177;-61
2023/12/12 01:41:58;;;;;;;23.58;6.03;;;8.30;99.90;;;;;;5115906;28;20593;-61
2023/12/12 01:44:24;;;;;;;16.00;5.25;;;8.40;99.90;;;;;;5115939;28;20179;-61
2023/12/12 01:46:51;;;;;;;18.13;5.03;;;8.40;99.90;;;;;;5115896;28;20236;-61
2023/12/12 01:49:17;;;;;;;23.92;6.68;;;8.40;99.90;;;;;;5115693;28;20723;-61
2023/12/12 01:51:46;;;;;;;22.15;5.93;;;8.50;99.90;;;;;;5116062;28;20249;-61
2023/12/12 01:54:13;;;;;;;20.00;5.75;;;8.60;99.90;;;;;;5115695;27;20234;-60
2023/12/12 01:56:40;;;;;;;17.35;6.30;;;8.60;99.90;;;;;;5115696;28;20184;-61
2023/12/12 01:59:06;;;;;;;23.17;6.30;;;8.70;99.90;;;;;;5115627;28;20670;-61
2023/12/12 02:01:32;;;;;;;26.00;6.53;;;8.70;99.90;;;;;;5115584;28;20165;-61
2023/12/12 02:03:59;;;;;;;20.13;5.82;;;8.70;99.90;;;;;;5115192;28;20648;-61
2023/12/12 02:06:24;;;;;;;23.45;6.75;;;8.80;99.90;;;;;;5115495;28;20180;-61
2023/12/12 02:08:54;;;;;;;20.23;6.45;;;8.80;99.90;;;;;;5115206;28;20619;-61
2023/12/12 02:11:21;;;;;;;21.40;5.68;;;8.80;99.90;;;;;;5115389;28;20525;-61
2023/12/12 02:13:48;;;;;;;20.02;5.75;;;8.80;99.90;;;;;;5115249;28;20630;-61
2023/12/12 02:16:13;;;;;;;22.98;5.70;;;8.90;99.90;;;;;;5115305;28;20201;-61
2023/12/12 02:18:39;;;;;;;18.55;5.75;;;8.80;99.90;;;;;;5115355;28;20205;-61
2023/12/12 02:21:05;;;;;;;18.35;5.70;;;8.90;99.90;;;;;;5115468;28;20166;-61
2023/12/12 02:23:32;;;;;;;21.60;6.05;;;8.90;99.90;;;;;;5115272;28;20543;-61
2023/12/12 02:25:59;;;;;;;19.35;5.82;;;8.90;99.90;;;;;;5115147;28;20591;-61
2023/12/12 02:28:25;;;;;;;21.50;6.70;;;9.00;99.90;;;;;;5114908;28;20240;-61
2023/12/12 02:30:51;;;;;;;21.02;5.45;;;9.00;99.90;;;;;;5114945;28;20576;-61
2023/12/12 02:33:17;;;;;;;20.98;5.65;;;9.00;99.90;;;;;;5114964;28;20175;-61
2023/12/12 02:35:43;;;;;;;21.10;7.00;;;9.00;99.90;;;;;;5114888;28;20225;-61
2023/12/12 02:38:08;;;;;;;24.58;6.97;;;9.00;99.90;;;;;;5114856;28;20173;-61
2023/12/12 02:40:34;;;;;;;21.15;6.05;;;9.00;99.90;;;;;;5114835;28;20166;-61
2023/12/12 02:43:00;;;;;;;19.10;5.15;;;9.00;99.90;;;;;;5114527;28;20626;-62
2023/12/12 02:45:26;;;;;;;20.55;5.90;;;9.00;99.90;;;;;;5114608;28;20208;-61
2023/12/12 02:47:52;;;;;;;21.92;6.00;;;9.00;99.90;;;;;;5114591;28;20550;-61
2023/12/12 02:50:18;;;;;;;18.83;7.13;;;9.00;99.90;;;;;;5114401;28;20819;-61
2023/12/12 02:52:44;;;;;;;18.83;6.03;;;9.00;99.90;;;;;;5114991;28;20653;-61
2023/12/12 02:55:10;;;;;;;18.92;5.60;;;9.00;99.90;;;;;;5114571;28;20368;-61
2023/12/12 02:57:36;;;;;;;21.95;6.22;;;9.10;99.90;;;;;;5114513;28;20169;-61
2023/12/12 03:00:03;;;;;;;20.13;5.47;;;9.10;99.90;;;;;;5114451;28;20525;-61
2023/12/12 03:02:29;;;;;;;20.75;5.07;;;9.10;99.90;;;;;;5114476;28;20183;-61
2023/12/12 03:04:55;;;;;;;22.27;6.20;;;9.10;99.90;;;;;;5114138;28;20177;-61
2023/12/12 03:07:20;;;;;;;19.95;5.72;;;9.10;99.90;;;;;;5114372;28;20169;-61
2023/12/12 03:09:46;;;;;;;18.65;6.18;;;9.10;99.90;;;;;;5114233;28;20231;-61
2023/12/12 03:12:12;;;;;;;19.95;5.70;;;9.10;99.90;;;;;;5114203;28;20177;-61
2023/12/12 03:14:37;;;;;;;21.10;6.05;;;9.10;99.90;;;;;;5114261;28;20168;-61
2023/12/12 03:17:03;;;;;;;19.80;5.05;;;9.20;99.90;;;;;;5114221;28;20170;-61
2023/12/12 03:19:29;;;;;;;18.58;5.80;;;9.20;99.90;;;;;;5114260;28;20185;-61
2023/12/12 03:21:55;;;;;;;21.08;5.65;;;9.20;99.90;;;;;;5113612;28;20277;-61
2023/12/12 03:24:20;;;;;;;22.05;5.68;;;9.20;99.90;;;;;;5113807;28;20185;-63
2023/12/12 03:26:46;;;;;;;22.48;5.60;;;9.20;99.90;;;;;;5114111;28;20165;-60
2023/12/12 03:29:13;;;;;;;20.45;4.93;;;9.20;99.90;;;;;;5113706;28;20207;-61
2023/12/12 03:31:41;;;;;;;19.13;4.95;;;9.20;99.90;;;;;;5114160;28;20221;-61
2023/12/12 03:34:08;;;;;;;18.95;5.50;;;9.20;99.90;;;;;;5114066;28;20229;-61
2023/12/12 03:36:34;;;;;;;16.52;5.18;;;9.10;99.90;;;;;;5113953;28;20530;-62
2023/12/12 03:39:00;;;;;;;21.02;6.32;;;9.10;99.90;;;;;;5114002;28;20254;-61
2023/12/12 03:41:27;;;;;;;19.08;5.43;;;9.10;99.90;;;;;;5113962;28;20260;-61
2023/12/12 03:43:53;;;;;;;18.95;5.35;;;9.00;99.90;;;;;;5113969;28;20197;-61
2023/12/12 03:46:19;;;;;;;19.73;4.63;;;9.00;99.90;;;;;;5113929;28;20294;-61
2023/12/12 03:48:45;;;;;;;17.67;5.57;;;9.00;99.90;;;;;;5113519;28;20201;-61
2023/12/12 03:51:11;;;;;;;20.25;5.07;;;9.00;99.90;;;;;;5113551;28;20238;-61
2023/12/12 03:53:38;;;;;;;26.05;5.28;;;9.10;99.90;;;;;;5113569;28;20215;-61
2023/12/12 03:56:04;;;;;;;18.90;5.43;;;9.10;99.90;;;;;;5113769;28;20181;-61
2023/12/12 03:58:30;;;;;;;19.67;5.40;;;9.10;99.90;;;;;;5114021;28;20181;-61
2023/12/12 04:00:55;;;;;;;20.42;5.80;;;9.20;99.90;;;;;;5113801;28;20172;-61
2023/12/12 04:03:21;;;;;;;21.65;5.43;;;9.20;99.90;;;;;;5113742;28;20214;-61
2023/12/12 04:05:47;;;;;;;19.80;5.43;;;9.30;99.90;;;;;;5113723;28;20170;-60
2023/12/12 04:08:13;;;;;;;21.80;5.15;;;9.30;99.90;;;;;;5113364;28;20296;-61
2023/12/12 04:10:39;;;;;;;25.10;5.35;;;9.40;99.90;;;;;;5113691;28;20231;-61
2023/12/12 04:13:05;;;;;;;26.23;5.80;;;9.40;99.90;;;;;;5113867;28;20657;-61
2023/12/12 04:15:30;;;;;;;18.05;5.00;;;9.40;99.90;;;;;;5113699;28;20186;-61
2023/12/12 04:17:56;;;;;;;20.35;5.95;;;9.40;99.90;;;;;;5113339;28;20626;-61
2023/12/12 04:20:22;;;;;;;16.67;5.15;;;9.40;99.90;;;;;;5113606;28;20195;-60
2023/12/12 04:22:47;;;;;;;19.75;6.38;;;9.50;99.90;;;;;;5113178;28;20259;-61
2023/12/12 04:25:13;;;;;;;26.95;6.25;;;9.40;99.90;;;;;;5113479;28;20180;-61
2023/12/12 04:27:39;;;;;;;21.83;6.47;;;9.50;99.90;;;;;;5113154;28;20630;-61
2023/12/12 04:30:06;;;;;;;22.65;5.88;;;9.50;99.90;;;;;;5113510;28;20185;-61
2023/12/12 04:32:32;;;;;;;22.13;6.10;;;9.50;99.90;;;;;;5113309;28;20201;-61
2023/12/12 04:34:59;;;;;;;25.10;6.55;;;9.50;99.90;;;;;;5117072;28;20183;-61
2023/12/12 04:37:25;;;;;;;20.30;5.90;;;9.50;99.90;;;;;;5116958;28;20172;-61
2023/12/12 04:39:51;;;;;;;24.20;5.80;;;9.40;99.90;;;;;;5117194;28;20289;-61
2023/12/12 04:42:17;;;;;;;20.58;5.72;;;9.50;99.90;;;;;;5117275;28;20170;-61
2023/12/12 04:44:42;;;;;;;19.58;5.57;;;9.50;99.90;;;;;;5117124;28;20526;-61
2023/12/12 04:47:08;;;;;;;21.45;5.25;;;9.50;99.90;;;;;;5116722;28;20165;-61
2023/12/12 04:49:34;;;;;;;20.73;5.80;;;9.50;99.90;;;;;;5117133;28;20662;-61
2023/12/12 04:52:01;;;;;;;19.40;5.30;;;9.50;99.90;;;;;;5116663;28;20169;-61
2023/12/12 04:54:27;;;;;;;22.67;5.22;;;9.60;99.90;;;;;;5116869;28;20182;-62
2023/12/12 04:56:52;;;;;;;22.98;6.78;;;9.60;99.90;;;;;;5116867;28;20210;-62
2023/12/12 04:59:18;;;;;;;22.80;7.03;;;9.60;99.90;;;;;;5117003;28;20173;-62
2023/12/12 05:01:44;;;;;;;16.90;5.82;;;9.70;99.90;;;;;;5116418;28;20185;-62
2023/12/12 05:04:09;;;;;;;19.95;5.72;;;9.60;99.90;;;;;;5116741;28;20188;-61
2023/12/12 05:06:35;;;;;;;21.05;5.28;;;9.50;99.90;;;;;;5116681;28;20169;-61
2023/12/12 05:09:01;;;;;;;26.95;6.10;;;9.50;99.90;;;;;;5116629;28;20204;-61
2023/12/12 05:11:26;;;;;;;18.90;5.18;;;9.50;99.90;;;;;;5116847;28;20222;-62
2023/12/12 05:13:52;;;;;;;20.17;5.35;;;9.50;99.90;;;;;;5116601;28;20568;-61
2023/12/12 05:16:18;;;;;;;19.75;5.25;;;9.60;99.90;;;;;;5116430;28;20173;-61
2023/12/12 05:18:44;;;;;;;17.70;5.05;;;9.50;99.90;;;;;;5116535;28;20173;-61
2023/12/12 05:21:11;;;;;;;19.83;5.22;;;9.60;99.90;;;;;;5116263;28;20499;-61
2023/12/12 05:23:36;;;;;;;20.80;5.50;;;9.60;99.90;;;;;;5116351;28;20169;-62
2023/12/12 05:26:02;;;;;;;23.42;5.78;;;9.60;99.90;;;;;;5116410;28;20678;-62
2023/12/12 05:28:28;;;;;;;16.67;5.35;;;9.70;99.90;;;;;;5116140;28;20212;-61
2023/12/12 05:30:54;;;;;;;23.60;5.97;;;9.60;99.90;;;;;;5116013;28;20169;-61
2023/12/12 05:33:20;;;;;;;21.38;5.68;;;9.60;99.90;;;;;;5115907;28;20184;-61
2023/12/12 05:35:48;;;;;;;19.20;5.55;;;9.60;99.90;;;;;;5115814;28;20275;-61
2023/12/12 05:38:13;;;;;;;23.15;5.05;;;9.60;99.90;;;;;;5115995;28;20178;-61
2023/12/12 05:40:39;;;;;;;25.98;6.03;;;9.70;99.90;;;;;;5116016;28;20173;-62
2023/12/12 05:43:05;;;;;;;20.08;5.82;;;9.60;99.90;;;;;;5115995;28;20247;-62
2023/12/12 05:45:30;;;;;;;21.80;5.60;;;9.60;99.90;;;;;;5115310;28;20184;-62
2023/12/12 05:47:56;;;;;;;20.98;4.97;;;9.60;99.90;;;;;;5115824;28;20673;-62
2023/12/12 05:50:22;;;;;;;17.05;5.10;;;9.60;99.90;;;;;;5115787;28;20196;-62
2023/12/12 05:52:47;;;;;;;20.80;5.63;;;9.70;99.90;;;;;;5115519;28;20531;-61
2023/12/12 05:55:13;;;;;;;19.17;5.72;;;9.80;99.90;;;;;;5115926;28;20180;-59
2023/12/12 05:57:39;;;;;;;19.80;5.28;;;9.80;99.90;;;;;;5115108;28;20298;-62
2023/12/12 06:00:05;;;;;;;18.00;5.85;;;9.80;99.90;;;;;;5114923;28;20174;-62
2023/12/12 06:02:31;;;;;;;18.52;5.50;;;9.70;99.90;;;;;;5115526;28;20185;-62
2023/12/12 06:04:57;;;;;;;15.10;5.13;;;9.80;99.90;;;;;;5115289;28;20177;-62
2023/12/12 06:07:23;;;;;;;20.20;5.35;;;9.80;99.90;;;;;;5115443;28;20170;-62
2023/12/12 06:09:48;;;;;;;20.10;4.90;;;9.70;99.90;;;;;;5115375;28;20258;-61
2023/12/12 06:12:16;;;;;;;18.67;5.35;;;9.80;99.90;;;;;;5115363;28;20526;-62
2023/12/12 06:14:42;;;;;;;22.00;5.35;;;9.80;99.90;;;;;;5115311;28;20582;-63
2023/12/12 06:17:08;;;;;;;18.67;5.13;;;9.80;99.90;;;;;;5115403;28;20200;-62
2023/12/12 06:19:34;;;;;;;21.27;5.65;;;9.80;99.90;;;;;;5115201;28;20618;-61
2023/12/12 06:21:59;;;;;;;13.82;4.88;;;9.80;99.90;;;;;;5115143;27;20225;-62
2023/12/12 06:24:25;;;;;;;24.35;6.20;;;9.80;99.90;;;;;;5115516;28;20581;-62
2023/12/12 06:26:51;;;;;;;17.08;5.50;;;9.80;99.90;;;;;;5115173;28;20657;-62
2023/12/12 06:29:16;;;;;;;20.38;6.05;;;9.80;99.90;;;;;;5115033;28;20204;-62
2023/12/12 06:31:42;;;;;;;20.40;6.15;;;9.80;99.90;;;;;;5114790;28;20538;-62
2023/12/12 06:34:10;;;;;;;17.25;5.72;;;9.70;99.90;;;;;;5115204;28;20170;-62
2023/12/12 06:36:37;;;;;;;15.40;5.75;;;9.70;99.90;;;;;;5114879;28;20200;-62
2023/12/12 06:39:03;;;;;;;21.80;6.75;;;9.60;99.90;;;;;;5114520;28;20652;-62
2023/12/12 06:41:29;;;;;;;17.17;6.03;;;9.70;99.90;;;;;;5114833;28;20247;-62
2023/12/12 06:43:54;;;;;;;18.00;6.00;;;9.70;99.90;;;;;;5114793;28;20268;-62
2023/12/12 06:46:20;;;;;;;24.60;7.35;;;9.70;99.90;;;;;;5114816;28;20177;-62
2023/12/12 06:48:46;;;;;;;21.15;6.07;;;9.70;99.90;;;;;;5114662;28;20697;-61
2023/12/12 06:51:11;;;;;;;21.17;6.05;;;9.70;99.90;;;;;;5114697;28;20177;-62
2023/12/12 06:53:37;;;;;;;15.98;5.40;;;9.70;99.90;;;;;;5114649;28;20193;-62
2023/12/12 06:56:03;;;;;;;20.30;6.88;;;9.60;99.90;;;;;;5113889;28;20173;-62
2023/12/12 06:58:29;;;;;;;19.63;6.68;;;9.60;99.90;;;;;;5114529;28;20177;-62
2023/12/12 07:00:55;;;;;;;18.27;5.28;;;9.60;99.90;;;;;;5114519;28;20184;-62
2023/12/12 07:03:24;;;;;;;14.10;4.90;;;9.60;99.90;;;;;;5114398;28;20535;-62
2023/12/12 07:05:52;;;;;;;21.55;5.70;;;9.60;99.90;;;;;;5114448;28;20184;-61
2023/12/12 07:08:19;;;;;;;22.10;6.30;;;9.50;99.90;;;;;;5114303;28;20204;-62
2023/12/12 07:10:48;;;;;;;18.10;5.65;;;9.60;99.90;;;;;;5114389;28;20169;-62
2023/12/12 07:13:14;;;;;;;16.85;6.10;;;9.60;99.90;;;;;;5114276;28;20176;-62
2023/12/12 07:15:40;;;;;;;24.17;6.45;;;9.60;99.90;;;;;;5114260;28;20174;-62
2023/12/12 07:18:10;;;;;;;20.77;6.68;;;9.60;99.90;;;;;;5114196;28;20177;-62
2023/12/12 07:20:37;;;;;;;17.42;7.15;;;9.60;99.90;;;;;;5114225;28;20168;-62
2023/12/12 07:23:04;;;;;;;22.00;6.32;;;9.60;99.90;;;;;;5114217;28;20228;-62
2023/12/12 07:25:30;;;;;;;25.30;6.55;;;9.60;99.90;;;;;;5113011;28;20162;-60
2023/12/12 07:27:56;;;;;;;22.67;6.50;;;9.60;99.90;;;;;;5113964;28;20212;-62
2023/12/12 07:30:21;;;;;;;18.42;6.22;;;9.60;99.90;;;;;;5113790;28;20173;-60
2023/12/12 07:32:47;;;;;;;17.20;6.35;;;9.60;99.90;;;;;;5114313;28;20173;-62
2023/12/12 07:35:13;;;;;;;15.13;5.53;;;9.50;99.90;;;;;;5114018;28;20252;-62
2023/12/12 07:37:39;;;;;;;18.77;6.18;;;9.60;99.90;;;;;;5113974;28;20195;-62
2023/12/12 07:40:06;;;;;;;23.90;6.70;;;9.60;99.90;;;;;;5113742;28;20173;-63
2023/12/12 07:42:31;;;;;;;21.88;6.15;;;9.60;99.90;;;;;;5113720;28;20173;-62
2023/12/12 07:44:57;;;;;;;17.48;5.90;;;9.60;99.90;;;;;;5114001;28;20256;-62
2023/12/12 07:47:23;;;;;;;18.45;6.50;;;9.70;99.90;;;;;;5113895;28;20177;-62
2023/12/12 07:49:49;;;;;;;15.15;6.15;;;9.70;99.90;;;;;;5113525;28;20205;-61
2023/12/12 07:52:15;;;;;;;15.27;5.88;;;9.70;99.90;;;;;;5113837;28;20177;-62
2023/12/12 07:54:42;;;;;;;18.58;6.00;;;9.70;99.90;;;;;;5114075;28;20177;-62
2023/12/12 07:57:09;;;;;;;15.43;6.13;;;9.70;99.90;;;;;;5114046;28;20173;-62
2023/12/12 07:59:34;;;;;;;18.15;7.13;;;9.70;99.90;;;;;;5113762;28;20618;-60
2023/12/12 08:02:00;;;;;;;19.40;6.60;;;9.80;99.90;;;;;;5113735;28;20173;-60
2023/12/12 08:04:26;;;;;;;15.98;6.43;;;9.80;99.90;;;;;;5113709;28;20235;-60
2023/12/12 08:06:52;;;;;;;12.82;5.75;;;9.80;99.90;;;;;;5114109;28;20173;-63
2023/12/12 08:09:17;;;;;;;11.98;5.70;;;9.90;99.90;;;;;;5117788;28;20212;-62
2023/12/12 08:11:43;;;;;;;14.98;6.30;;;9.90;99.90;;;;;;5117756;28;20177;-62
2023/12/12 08:14:09;;;;;;;18.70;6.40;;;9.90;99.90;;;;;;5117746;28;20203;-60
2023/12/12 08:16:34;;;;;;;15.32;6.70;;;10.00;99.90;;;;;;5117860;28;20264;-60
2023/12/12 08:19:00;;;;;;;13.02;6.95;;;10.00;99.90;;;;;;5117644;28;20181;-59
2023/12/12 08:21:26;;;;;;;12.68;6.70;;;10.10;99.90;;;;;;5117326;28;20265;-63
2023/12/12 08:23:54;;;;;;;14.68;6.88;;;10.20;99.90;;;;;;5117525;28;20607;-60
2023/12/12 08:26:22;;;;;;;10.85;6.72;;;10.30;99.90;;;;;;5117449;28;20200;-62
2023/12/12 08:28:48;;;;;;;13.63;7.10;;;10.30;99.90;;;;;;5117310;28;20213;-62
2023/12/12 08:31:14;;;;;;;12.52;6.93;;;10.30;99.90;;;;;;5117387;28;20243;-60
2023/12/12 08:33:40;;;;;;;10.80;6.80;;;10.30;99.90;;;;;;5117324;28;20206;-60
2023/12/12 08:36:06;;;;;;;10.73;7.38;;;10.30;99.90;;;;;;5117298;28;20178;-62
2023/12/12 08:38:32;;;;;;;7.82;7.00;;;10.40;99.90;;;;;;5117215;28;20185;-60
2023/12/12 08:40:59;;;;;;;11.43;7.65;;;10.50;99.90;;;;;;5117175;28;20187;-59
2023/12/12 08:43:25;;;;;;;9.10;7.43;;;10.50;99.90;;;;;;5117096;28;20201;-62
2023/12/12 08:45:52;;;;;;;10.00;7.03;;;10.60;99.90;;;;;;5117048;28;20209;-62
2023/12/12 08:48:18;;;;;;;10.40;7.30;;;10.70;99.90;;;;;;5116909;28;20280;-61
2023/12/12 08:50:44;;;;;;;11.00;7.90;;;10.70;99.90;;;;;;5116985;28;20264;-61
2023/12/12 08:53:10;;;;;;;11.52;7.38;;;10.70;99.90;;;;;;5116872;28;20361;-60
2023/12/12 08:55:37;;;;;;;9.25;6.82;;;10.80;99.90;;;;;;5116976;28;20177;-60
2023/12/12 08:58:04;;;;;;;9.07;6.32;;;10.80;99.90;;;;;;5116586;28;20178;-61
2023/12/12 09:00:30;;;;;;;11.88;7.35;;;10.80;99.90;;;;;;5116799;28;20181;-60
2023/12/12 09:02:56;;;;;;;10.93;7.63;;;10.80;99.90;;;;;;5116770;28;20178;-60
2023/12/12 09:05:21;;;;;;;9.95;7.43;;;10.80;99.90;;;;;;5116483;28;20173;-60
2023/12/12 09:07:47;;;;;;;8.30;6.03;;;10.80;99.90;;;;;;5116566;28;20178;-60
2023/12/12 09:10:12;;;;;;;8.23;7.40;;;10.90;99.90;;;;;;5116635;28;20178;-61
2023/12/12 09:12:39;;;;;;;9.70;7.43;;;10.90;99.90;;;;;;5116553;28;20188;-61
2023/12/12 09:15:05;;;;;;;10.57;7.38;;;11.00;99.90;;;;;;5116569;28;20168;-60
2023/12/12 09:17:31;;;;;;;10.15;7.00;;;11.00;99.90;;;;;;5116419;28;20185;-60
2023/12/12 09:19:57;;;;;;;10.30;6.78;;;11.10;99.90;;;;;;5115372;28;20185;-60
2023/12/12 09:22:23;;;;;;;8.35;7.18;;;11.10;99.90;;;;;;5115861;28;20225;-60
2023/12/12 09:24:48;;;;;;;6.85;6.15;;;11.10;99.90;;;;;;5116365;28;20177;-60
2023/12/12 09:27:15;;;;;;;8.65;7.43;;;11.20;99.90;;;;;;5116275;28;20185;-61
2023/12/12 09:29:42;;;;;;;9.88;6.70;;;11.10;99.90;;;;;;5116160;28;20262;-60
2023/12/12 09:32:07;;;;;;;7.85;6.93;;;11.10;99.90;;;;;;5116508;28;20173;-60
2023/12/12 09:34:33;;;;;;;7.13;6.40;;;11.10;99.90;;;;;;5116171;28;20229;-62
2023/12/12 09:36:58;;;;;;;7.93;6.75;;;11.10;99.90;;;;;;5116224;28;20213;-59
2023/12/12 09:39:24;;;;;;;8.85;6.22;;;11.10;99.90;;;;;;5116061;28;20212;-63
2023/12/12 09:41:52;;;;;;;8.18;6.40;;;11.10;99.90;;;;;;5115965;28;20180;-62
2023/12/12 09:44:19;;;;;;;8.57;6.65;;;11.10;99.90;;;;;;5115975;28;20256;-62
2023/12/12 09:46:45;;;;;;;6.88;5.72;;;11.00;99.90;;;;;;5115952;28;20172;-60
2023/12/12 09:49:13;;;;;;;7.50;5.97;;;11.10;99.90;;;;;;5115855;28;20211;-63
2023/12/12 09:51:41;;;;;;;7.28;5.53;;;11.10;99.90;;;;;;5115812;28;20173;-60
2023/12/12 09:54:07;;;;;;;7.78;6.38;;;11.10;99.90;;;;;;5115788;28;20174;-60
2023/12/12 09:56:40;;;;;;;7.68;6.53;;;11.10;99.90;;;;;;5115751;28;20177;-60
2023/12/12 09:59:06;;;;;;;10.35;7.32;;;11.10;99.90;;;;;;5115610;28;20188;-60
2023/12/12 10:01:35;;;;;;;8.00;6.45;;;11.10;99.90;;;;;;5115526;28;20173;-60
2023/12/12 10:04:11;;;;;;;7.55;6.18;;;11.20;99.90;;;;;;5115548;28;20246;-60
2023/12/12 10:06:59;;;;;;;6.95;5.80;;;11.20;99.90;;;;;;5115620;28;20551;-60
2023/12/12 10:09:25;;;;;;;6.75;6.05;;;11.20;99.90;;;;;;5115474;28;20201;-60
2023/12/12 10:11:51;;;;;;;6.15;5.60;;;11.30;99.90;;;;;;5115163;28;20184;-60
2023/12/12 10:14:36;;;;;;;8.40;5.97;;;11.20;99.90;;;;;;5115064;28;20177;-60
2023/12/12 10:17:05;;;;;;;8.45;6.13;;;11.30;99.90;;;;;;5115118;28;20496;-60
2023/12/12 10:19:31;;;;;;;6.95;5.93;;;11.40;99.90;;;;;;5115238;28;20280;-60
2023/12/12 10:22:04;;;;;;;7.80;5.80;;;11.50;99.90;;;;;;5114835;28;20247;-60
2023/12/12 10:24:30;;;;;;;6.70;5.85;;;11.50;99.90;;;;;;5115255;28;20169;-60
2023/12/12 10:26:56;;;;;;;6.03;5.40;;;11.50;99.90;;;;;;5115135;28;20679;-63
2023/12/12 10:29:23;;;;;;;7.18;6.00;;;11.50;99.90;;;;;;5115030;28;20197;-59
2023/12/12 10:31:48;;;;;;;7.57;5.28;;;11.50;99.90;;;;;;5113656;28;20576;-59
2023/12/12 10:34:17;;;;;;;6.15;5.20;;;11.60;99.90;;;;;;5114949;28;20177;-60
2023/12/12 10:36:46;;;;;;;7.50;6.03;;;11.60;99.90;;;;;;5114931;28;20180;-60
2023/12/12 10:39:13;;;;;;;6.45;5.85;;;11.50;99.90;;;;;;5114951;28;20165;-62
2023/12/12 10:41:39;;;;;;;6.95;5.88;;;11.50;99.90;;;;;;5114799;28;20514;-62
2023/12/12 10:44:06;;;;;;;7.60;5.68;;;11.50;99.90;;;;;;5114873;28;20180;-62
2023/12/12 10:46:36;;;;;;;6.40;5.78;;;11.50;99.90;;;;;;5114749;28;20178;-62
2023/12/12 10:49:02;;;;;;;6.82;6.13;;;11.60;99.90;;;;;;5114795;28;20197;-62
2023/12/12 10:51:28;;;;;;;8.50;5.93;;;11.70;99.90;;;;;;5114632;28;20201;-62
2023/12/12 10:53:55;;;;;;;7.07;6.38;;;11.60;99.90;;;;;;5114653;28;20180;-62
2023/12/12 10:56:21;;;;;;;6.43;5.85;;;11.70;99.90;;;;;;5114529;28;20203;-60
2023/12/12 10:58:50;;;;;;;8.55;6.45;;;11.70;99.90;;;;;;5114859;28;20209;-62
2023/12/12 11:01:16;;;;;;;8.07;6.22;;;11.70;99.90;;;;;;5114235;28;20239;-62
2023/12/12 11:03:43;;;;;;;6.70;6.10;;;11.70;99.90;;;;;;5114583;28;20173;-60
2023/12/12 11:06:09;;;;;;;7.18;6.47;;;11.70;99.90;;;;;;5114460;28;20169;-60
2023/12/12 11:08:36;;;;;;;8.82;7.07;;;11.70;99.90;;;;;;5114288;28;20274;-60
2023/12/12 11:11:06;;;;;;;7.80;6.93;;;11.70;99.90;;;;;;5114360;28;20170;-62
2023/12/12 11:13:34;;;;;;;6.97;6.20;;;11.80;99.90;;;;;;5114269;28;20219;-60
2023/12/12 11:16:03;;;;;;;8.38;7.53;;;11.90;99.90;;;;;;5114329;28;20173;-60
2023/12/12 11:18:29;;;;;;;9.50;7.30;;;11.80;99.90;;;;;;5114248;28;20180;-62
2023/12/12 11:20:55;;;;;;;9.27;8.20;;;11.90;99.90;;;;;;5114355;28;20173;-60
2023/12/12 11:23:39;;;;;;;9.27;7.80;;;11.90;99.90;;;;;;5113696;28;20728;-62
2023/12/12 11:26:06;;;;;;;11.25;8.30;;;11.80;99.90;;;;;;5114144;28;20637;-62
2023/12/12 11:28:35;;;;;;;9.10;8.30;;;11.80;99.90;;;;;;5114026;28;20201;-64
2023/12/12 11:31:01;;;;;;;8.73;7.93;;;11.80;99.90;;;;;;5114033;28;20182;-61
2023/12/12 11:33:28;;;;;;;9.38;8.48;;;11.80;99.90;;;;;;5113983;28;20689;-59
2023/12/12 11:35:54;;;;;;;10.60;8.60;;;11.80;99.90;;;;;;5114040;28;20177;-60
2023/12/12 11:38:29;;;;;;;9.18;8.25;;;11.80;99.90;;;;;;5113995;28;20180;-62
2023/12/12 11:41:14;;;;;;;9.25;8.35;;;11.80;99.90;;;;;;5113884;28;20234;-60
2023/12/12 11:43:41;;;;;;;8.38;7.50;;;11.80;99.90;;;;;;5113622;28;20164;-60
2023/12/12 11:46:19;;;;;;;9.45;7.95;;;11.80;99.90;;;;;;5113875;28;20178;-60
2023/12/12 11:48:44;;;;;;;8.40;7.60;;;11.80;99.90;;;;;;5113809;28;20208;-61
2023/12/12 11:51:45;;;;;;;7.80;7.00;;;11.90;99.90;;;;;;5113539;28;20561;-60
2023/12/12 11:54:21;;;;;;;8.27;7.50;;;12.00;99.90;;;;;;5113943;28;20166;-60
2023/12/12 11:56:57;;;;;;;7.95;7.20;;;12.10;99.90;;;;;;5113820;28;20200;-60
2023/12/12 11:59:24;;;;;;;7.28;6.57;;;12.10;99.90;;;;;;5114145;28;20161;-59
2023/12/12 12:01:50;;;;;;;7.20;6.60;;;12.00;99.90;;;;;;5113814;28;20184;-60
2023/12/12 12:04:16;;;;;;;8.13;7.32;;;11.90;99.90;;;;;;5113783;28;20205;-60
2023/12/12 12:06:43;;;;;;;8.05;7.25;;;11.90;99.90;;;;;;5113891;28;20180;-60
2023/12/12 12:09:09;;;;;;;7.20;6.57;;;11.90;99.90;;;;;;5113665;28;20209;-61
2023/12/12 12:11:43;;;;;;;9.60;6.95;;;11.90;99.90;;;;;;5113653;28;20176;-61
2023/12/12 12:14:11;;;;;;;8.20;7.40;;;11.90;99.90;;;;;;5113710;28;20161;-61
2023/12/12 12:16:37;;;;;;;7.65;6.68;;;12.00;99.90;;;;;;5114060;28;20179;-61
2023/12/12 12:19:34;;;;;;;9.13;7.95;;;11.90;99.90;;;;;;5113420;28;20260;-60
2023/12/12 12:22:08;;;;;;;7.82;7.00;;;12.00;99.90;;;;;;5113559;28;20221;-60
2023/12/12 12:24:41;;;;;;;7.55;6.90;;;12.00;99.90;;;;;;5113619;28;20547;-60
2023/12/12 12:27:07;;;;;;;7.28;6.68;;;12.00;99.90;;;;;;5113496;28;20606;-62
2023/12/12 12:29:33;;;;;;;7.13;6.43;;;11.90;99.90;;;;;;5113475;28;20254;-60
2023/12/12 12:32:16;;;;;;;8.05;6.72;;;12.00;99.90;;;;;;5113483;28;20614;-60
2023/12/12 12:34:42;;;;;;;7.10;6.50;;;12.20;99.90;;;;;;5113474;28;20169;-60
2023/12/12 12:37:28;;;;;;;6.68;6.10;;;12.20;99.90;;;;;;5113430;28;20575;-60
2023/12/12 12:39:53;;;;;;;6.82;6.20;;;12.20;99.90;;;;;;5113588;28;20193;-60
2023/12/12 12:42:19;;;;;;;6.10;5.50;;;12.30;99.90;;;;;;5113452;28;20208;-60
2023/12/12 12:44:45;;;;;;;6.80;6.10;;;12.30;99.90;;;;;;5113453;28;20677;-60